createdAt,value
2018-03-18T00:01:26.917Z,-0.87
2018-03-18T00:03:53.096Z,-0.87
2018-03-18T00:06:19.203Z,-0.89
2018-03-18T00:08:45.350Z,-0.86
2018-03-18T00:11:11.351Z,-0.86
2018-03-18T00:13:37.412Z,-0.89
2018-03-18T00:16:03.434Z,-0.90
2018-03-18T00:18:29.451Z,-0.89
2018-03-18T00:20:55.505Z,-0.92
2018-03-18T00:23:21.550Z,-0.92
2018-03-18T00:25:47.602Z,-0.88
2018-03-18T00:28:13.640Z,-0.89
2018-03-18T00:30:39.651Z,-0.92
2018-03-18T00:33:05.675Z,-0.93
2018-03-18T00:35:31.734Z,-0.92
2018-03-18T00:37:57.769Z,-0.95
2018-03-18T00:40:23.831Z,-0.94
2018-03-18T00:42:50.562Z,-0.97
2018-03-18T00:45:16.656Z,-0.94
2018-03-18T00:47:42.831Z,-0.93
2018-03-18T00:50:08.856Z,-0.95
2018-03-18T00:52:35.056Z,-0.95
2018-03-18T00:55:01.171Z,-0.98
2018-03-18T00:57:27.264Z,-0.95
2018-03-18T00:59:53.299Z,-0.97
2018-03-18T01:02:19.384Z,-0.97
2018-03-18T01:04:45.562Z,-0.97
2018-03-18T01:07:11.642Z,-0.97
2018-03-18T01:09:37.659Z,-1.01
2018-03-18T01:12:03.662Z,-1.03
2018-03-18T01:14:29.668Z,-1.09
2018-03-18T01:16:55.701Z,-1.09
2018-03-18T01:19:21.713Z,-1.16
2018-03-18T01:21:47.770Z,-1.15
2018-03-18T01:24:13.799Z,-1.13
2018-03-18T01:26:39.912Z,-1.13
2018-03-18T01:29:05.972Z,-1.13
2018-03-18T01:31:32.036Z,-1.11
2018-03-18T01:33:58.062Z,-1.13
2018-03-18T01:36:24.518Z,-1.12
2018-03-18T01:38:50.515Z,-1.13
2018-03-18T01:41:16.526Z,-1.17
2018-03-18T01:43:42.543Z,-1.13
2018-03-18T01:46:08.559Z,-1.17
2018-03-18T01:48:34.864Z,-1.15
2018-03-18T01:51:00.919Z,-1.16
2018-03-18T01:53:27.037Z,-1.18
2018-03-18T01:55:53.096Z,-1.17
2018-03-18T01:58:19.106Z,-1.19
2018-03-18T02:00:45.964Z,-1.17
2018-03-18T02:03:11.987Z,-1.20
2018-03-18T02:05:37.973Z,-1.20
2018-03-18T02:08:04.014Z,-1.19
2018-03-18T02:10:30.026Z,-1.20
2018-03-18T02:12:56.067Z,-1.17
2018-03-18T02:15:22.118Z,-1.15
2018-03-18T02:17:48.175Z,-1.15
2018-03-18T02:20:14.166Z,-1.15
2018-03-18T02:22:40.232Z,-1.17
2018-03-18T02:25:06.258Z,-1.18
2018-03-18T02:27:32.274Z,-1.19
2018-03-18T02:29:58.412Z,-1.21
2018-03-18T02:32:24.794Z,-1.21
2018-03-18T02:34:50.804Z,-1.20
2018-03-18T02:37:16.858Z,-1.20
2018-03-18T02:39:43.246Z,-1.21
2018-03-18T02:42:09.455Z,-1.22
2018-03-18T02:44:35.511Z,-1.27
2018-03-18T02:47:01.515Z,-1.31
2018-03-18T02:49:27.526Z,-1.33
2018-03-18T02:51:53.646Z,-1.32
2018-03-18T02:54:19.683Z,-1.32
2018-03-18T02:56:45.718Z,-1.36
2018-03-18T02:59:11.745Z,-1.38
2018-03-18T03:01:37.760Z,-1.36
2018-03-18T03:04:03.832Z,-1.39
2018-03-18T03:06:29.859Z,-1.41
2018-03-18T03:08:55.870Z,-1.43
2018-03-18T03:11:21.860Z,-1.45
2018-03-18T03:13:47.899Z,-1.47
2018-03-18T03:16:13.905Z,-1.52
2018-03-18T03:18:39.909Z,-1.52
2018-03-18T03:21:05.981Z,-1.55
2018-03-18T03:23:31.974Z,-1.55
2018-03-18T03:25:57.982Z,-1.59
2018-03-18T03:28:24.009Z,-1.59
2018-03-18T03:30:50.016Z,-1.59
2018-03-18T03:33:16.031Z,-1.62
2018-03-18T03:35:42.038Z,-1.68
2018-03-18T03:38:08.084Z,-1.64
2018-03-18T03:40:34.086Z,-1.66
2018-03-18T03:43:00.131Z,-1.68
2018-03-18T03:45:26.136Z,-1.67
2018-03-18T03:47:52.185Z,-1.67
2018-03-18T03:50:18.195Z,-1.70
2018-03-18T03:52:44.211Z,-1.72
2018-03-18T03:55:10.280Z,-1.76
2018-03-18T03:57:36.293Z,-1.74
2018-03-18T04:00:02.294Z,-1.77
2018-03-18T04:02:28.313Z,-1.76
2018-03-18T04:05:01.202Z,-1.77
2018-03-18T04:07:27.224Z,-1.78
2018-03-18T04:09:53.278Z,-1.79
2018-03-18T04:12:19.314Z,-1.82
2018-03-18T04:14:45.629Z,-1.85
2018-03-18T04:17:11.634Z,-1.81
2018-03-18T04:19:37.631Z,-1.85
2018-03-18T04:22:03.659Z,-1.88
2018-03-18T04:24:29.656Z,-1.90
2018-03-18T04:26:55.661Z,-1.93
2018-03-18T04:29:21.687Z,-1.96
2018-03-18T04:31:47.794Z,-1.98
2018-03-18T04:34:13.812Z,-1.99
2018-03-18T04:36:39.815Z,-2.02
2018-03-18T04:39:05.810Z,-2.02
2018-03-18T04:41:31.817Z,-2.01
2018-03-18T04:43:57.802Z,-2.04
2018-03-18T04:46:23.791Z,-2.04
2018-03-18T04:48:49.788Z,-2.06
2018-03-18T04:51:15.804Z,-2.05
2018-03-18T04:53:41.831Z,-2.07
2018-03-18T04:56:07.832Z,-2.08
2018-03-18T04:58:33.854Z,-2.07
2018-03-18T05:00:59.877Z,-2.04
2018-03-18T05:03:25.903Z,-2.02
2018-03-18T05:05:51.986Z,-2.03
2018-03-18T05:08:18.002Z,-2.07
2018-03-18T05:10:44.016Z,-2.05
2018-03-18T05:13:10.016Z,-2.08
2018-03-18T05:15:36.011Z,-2.07
2018-03-18T05:18:02.062Z,-2.03
2018-03-18T05:20:28.054Z,-2.03
2018-03-18T05:22:54.055Z,-2.03
2018-03-18T05:25:20.074Z,-1.99
2018-03-18T05:27:46.091Z,-1.97
2018-03-18T05:30:12.120Z,-1.94
2018-03-18T05:32:38.169Z,-1.90
2018-03-18T05:35:04.195Z,-1.88
2018-03-18T05:37:30.220Z,-1.84
2018-03-18T05:39:56.231Z,-1.82
2018-03-18T05:42:22.276Z,-1.80
2018-03-18T05:44:48.356Z,-1.79
2018-03-18T05:47:14.408Z,-1.77
2018-03-18T05:49:40.449Z,-1.76
2018-03-18T05:52:06.551Z,-1.74
2018-03-18T05:54:32.640Z,-1.73
2018-03-18T05:56:58.676Z,-1.73
2018-03-18T05:59:24.659Z,-1.69
2018-03-18T06:01:50.683Z,-1.70
2018-03-18T06:04:17.072Z,-1.69
2018-03-18T06:06:43.162Z,-1.71
2018-03-18T06:09:09.165Z,-1.69
2018-03-18T06:11:35.169Z,-1.71
2018-03-18T06:14:01.193Z,-1.72
2018-03-18T06:16:27.321Z,-1.72
2018-03-18T06:18:53.322Z,-1.69
2018-03-18T06:21:19.419Z,-1.67
2018-03-18T06:23:45.628Z,-1.64
2018-03-18T06:26:11.631Z,-1.65
2018-03-18T06:28:37.650Z,-1.61
2018-03-18T06:31:03.686Z,-1.59
2018-03-18T06:33:29.718Z,-1.56
2018-03-18T06:35:55.734Z,-1.49
2018-03-18T06:38:21.758Z,-1.45
2018-03-18T06:40:47.833Z,-1.49
2018-03-18T06:43:13.897Z,-1.47
2018-03-18T06:45:39.905Z,-1.42
2018-03-18T06:48:05.906Z,-1.36
2018-03-18T06:50:31.936Z,-1.35
2018-03-18T06:52:58.023Z,-1.41
2018-03-18T06:55:24.078Z,-1.40
2018-03-18T06:57:50.105Z,-1.38
2018-03-18T07:00:16.112Z,-1.34
2018-03-18T07:02:42.269Z,-1.26
2018-03-18T07:05:08.271Z,-1.23
2018-03-18T07:07:34.327Z,-1.21
2018-03-18T07:10:00.554Z,-1.16
2018-03-18T07:12:26.830Z,-1.10
2018-03-18T07:14:52.908Z,-1.00
2018-03-18T07:17:19.003Z,-0.89
2018-03-18T07:19:45.124Z,-0.91
2018-03-18T07:22:11.159Z,-0.80
2018-03-18T07:24:37.210Z,-0.90
2018-03-18T07:27:03.306Z,-0.76
2018-03-18T07:29:29.367Z,-0.56
2018-03-18T07:31:55.371Z,-0.59
2018-03-18T07:34:21.403Z,-0.44
2018-03-18T07:36:47.702Z,-0.36
2018-03-18T07:39:13.724Z,-0.21
2018-03-18T07:41:39.709Z,-0.07
2018-03-18T07:44:05.757Z,-0.36
2018-03-18T07:46:31.811Z,-0.62
2018-03-18T07:48:57.881Z,-0.55
2018-03-18T07:51:23.922Z,-0.42
2018-03-18T07:53:49.918Z,-0.27
2018-03-18T07:56:15.976Z,-0.19
2018-03-18T07:58:42.018Z,-0.41
2018-03-18T08:01:08.237Z,-0.61
2018-03-18T08:03:34.268Z,-0.78
2018-03-18T08:06:00.278Z,-0.58
2018-03-18T08:08:26.386Z,-0.46
2018-03-18T08:10:52.447Z,-0.64
2018-03-18T08:13:18.456Z,-0.63
2018-03-18T08:15:44.534Z,-0.49
2018-03-18T08:18:10.594Z,-0.50
2018-03-18T08:20:36.626Z,-0.65
2018-03-18T08:23:02.664Z,-0.60
2018-03-18T08:25:28.665Z,-0.50
2018-03-18T08:27:54.833Z,-0.41
2018-03-18T08:30:20.992Z,-0.19
2018-03-18T08:32:47.912Z,0.13
2018-03-18T08:35:13.896Z,0.57
2018-03-18T08:37:40.065Z,1.05
2018-03-18T08:40:06.129Z,0.85
2018-03-18T08:42:32.216Z,0.20
2018-03-18T08:44:58.225Z,0.07
2018-03-18T08:47:24.242Z,0.05
2018-03-18T08:49:50.296Z,0.07
2018-03-18T08:52:16.446Z,0.70
2018-03-18T08:54:42.491Z,0.09
2018-03-18T08:57:08.502Z,-0.17
2018-03-18T08:59:34.510Z,-0.35
2018-03-18T09:02:00.529Z,0.02
2018-03-18T09:04:26.528Z,0.19
2018-03-18T09:06:52.628Z,0.32
2018-03-18T09:09:18.688Z,1.05
2018-03-18T09:11:44.675Z,1.79
2018-03-18T09:14:10.653Z,2.39
2018-03-18T09:16:36.699Z,2.95
2018-03-18T09:19:02.776Z,2.44
2018-03-18T09:21:28.828Z,1.83
2018-03-18T09:23:54.891Z,1.81
2018-03-18T09:26:21.835Z,1.82
2018-03-18T09:28:47.861Z,1.76
2018-03-18T09:31:13.878Z,1.67
2018-03-18T09:33:39.897Z,1.46
2018-03-18T09:36:05.958Z,1.83
2018-03-18T09:38:31.949Z,2.37
2018-03-18T09:40:57.947Z,2.30
2018-03-18T09:43:23.990Z,2.34
2018-03-18T09:45:50.062Z,2.34
2018-03-18T09:48:16.058Z,2.54
2018-03-18T09:50:42.074Z,2.61
2018-03-18T09:53:08.112Z,2.70
2018-03-18T09:55:34.131Z,2.73
2018-03-18T09:58:00.179Z,3.01
2018-03-18T10:00:26.220Z,3.70
2018-03-18T10:02:52.254Z,4.07
2018-03-18T10:05:18.293Z,5.13
2018-03-18T10:07:44.391Z,5.49
2018-03-18T10:10:10.393Z,5.07
2018-03-18T10:12:36.401Z,5.32
2018-03-18T10:15:02.422Z,5.24
2018-03-18T10:17:28.482Z,5.58
2018-03-18T10:19:54.504Z,5.88
2018-03-18T10:22:20.624Z,5.85
2018-03-18T10:24:46.662Z,5.45
2018-03-18T10:27:12.695Z,5.66
2018-03-18T10:29:38.804Z,5.03
2018-03-18T10:32:04.870Z,5.03
2018-03-18T10:34:30.909Z,5.19
2018-03-18T10:36:57.062Z,4.56
2018-03-18T10:39:23.339Z,4.13
2018-03-18T10:41:49.363Z,3.88
2018-03-18T10:44:15.430Z,3.85
2018-03-18T10:46:41.438Z,3.98
2018-03-18T10:49:07.455Z,4.25
2018-03-18T10:51:33.576Z,4.34
2018-03-18T10:53:59.612Z,4.38
2018-03-18T10:56:25.902Z,4.06
2018-03-18T10:58:51.900Z,4.24
2018-03-18T11:01:23.834Z,4.03
2018-03-18T11:03:55.853Z,4.59
2018-03-18T11:06:21.953Z,5.06
2018-03-18T11:08:48.008Z,4.87
2018-03-18T11:11:14.083Z,4.98
2018-03-18T11:13:40.081Z,4.71
2018-03-18T11:16:06.211Z,3.75
2018-03-18T11:18:32.183Z,3.37
2018-03-18T11:20:58.197Z,3.44
2018-03-18T11:23:24.254Z,3.78
2018-03-18T11:25:50.382Z,4.01
2018-03-18T11:28:16.404Z,4.19
2018-03-18T11:30:42.425Z,4.59
2018-03-18T11:33:08.419Z,4.26
2018-03-18T11:35:34.397Z,3.89
2018-03-18T11:38:00.547Z,3.76
2018-03-18T11:40:26.538Z,3.82
2018-03-18T11:42:52.617Z,4.14
2018-03-18T11:45:18.654Z,4.20
2018-03-18T11:47:44.662Z,4.36
2018-03-18T11:50:10.684Z,4.44
2018-03-18T11:52:36.742Z,4.46
2018-03-18T11:55:02.922Z,5.28
2018-03-18T11:57:28.975Z,5.28
2018-03-18T11:59:55.029Z,5.34
2018-03-18T12:02:21.125Z,5.27
2018-03-18T12:04:47.186Z,5.28
2018-03-18T12:07:13.317Z,5.90
2018-03-18T12:09:39.332Z,6.07
2018-03-18T12:12:05.434Z,6.49
2018-03-18T12:14:31.554Z,6.58
2018-03-18T12:16:57.597Z,6.67
2018-03-18T12:19:23.682Z,6.80
2018-03-18T12:21:49.714Z,6.29
2018-03-18T12:24:15.810Z,6.70
2018-03-18T12:26:41.814Z,7.18
2018-03-18T12:29:07.867Z,6.67
2018-03-18T12:31:33.866Z,7.12
2018-03-18T12:33:59.900Z,7.45
2018-03-18T12:36:25.898Z,8.32
2018-03-18T12:38:51.902Z,9.48
2018-03-18T12:41:17.938Z,9.11
2018-03-18T12:43:43.993Z,9.31
2018-03-18T12:46:10.232Z,9.76
2018-03-18T12:48:36.255Z,9.91
2018-03-18T12:51:02.316Z,9.82
2018-03-18T12:53:28.358Z,9.07
2018-03-18T12:55:54.358Z,8.52
2018-03-18T12:58:20.454Z,8.09
2018-03-18T13:00:46.589Z,8.21
2018-03-18T13:03:12.585Z,8.36
2018-03-18T13:05:38.632Z,8.83
2018-03-18T13:08:04.771Z,8.58
2018-03-18T13:10:30.838Z,9.68
2018-03-18T13:12:56.903Z,11.10
2018-03-18T13:15:23.486Z,11.92
2018-03-18T13:17:49.589Z,12.55
2018-03-18T13:20:16.156Z,12.74
2018-03-18T13:22:42.179Z,11.78
2018-03-18T13:25:08.209Z,12.18
2018-03-18T13:27:34.265Z,11.11
2018-03-18T13:30:00.322Z,8.52
2018-03-18T13:32:26.465Z,8.25
2018-03-18T13:34:52.562Z,8.27
2018-03-18T13:37:18.666Z,13.65
2018-03-18T13:39:44.795Z,16.76
2018-03-18T13:42:10.991Z,17.78
2018-03-18T13:44:37.064Z,18.76
2018-03-18T13:47:03.104Z,19.32
2018-03-18T13:49:29.615Z,17.35
2018-03-18T13:51:55.680Z,18.35
2018-03-18T13:54:21.745Z,15.27
2018-03-18T13:56:47.766Z,20.42
2018-03-18T13:59:13.855Z,18.02
2018-03-18T14:01:39.992Z,14.33
2018-03-18T14:04:05.998Z,11.97
2018-03-18T14:06:32.013Z,10.19
2018-03-18T14:08:58.061Z,9.15
2018-03-18T14:11:24.175Z,8.53
2018-03-18T14:13:50.287Z,8.34
2018-03-18T14:16:16.417Z,8.72
2018-03-18T14:18:42.525Z,8.96
2018-03-18T14:21:08.596Z,13.82
2018-03-18T14:23:34.589Z,13.82
2018-03-18T14:26:00.714Z,13.49
2018-03-18T14:28:26.847Z,12.82
2018-03-18T14:30:55.387Z,9.79
2018-03-18T14:33:22.354Z,9.79
2018-03-18T14:35:48.354Z,13.65
2018-03-18T14:38:15.053Z,10.41
2018-03-18T14:40:41.187Z,8.52
2018-03-18T14:43:07.406Z,6.63
2018-03-18T14:45:33.441Z,6.39
2018-03-18T14:47:59.520Z,5.68
2018-03-18T14:50:25.598Z,5.62
2018-03-18T14:52:51.594Z,6.08
2018-03-18T14:55:17.650Z,10.14
2018-03-18T14:57:43.663Z,12.16
2018-03-18T15:00:10.063Z,11.34
2018-03-18T15:02:36.121Z,9.80
2018-03-18T15:05:02.311Z,11.30
2018-03-18T15:07:28.373Z,9.98
2018-03-18T15:09:54.490Z,12.21
2018-03-18T15:12:20.475Z,12.39
2018-03-18T15:14:46.534Z,12.84
2018-03-18T15:17:12.595Z,14.39
2018-03-18T15:19:38.683Z,14.11
2018-03-18T15:22:04.866Z,16.77
2018-03-18T15:24:30.984Z,17.40
2018-03-18T15:26:57.103Z,14.79
2018-03-18T15:29:23.216Z,10.05
2018-03-18T15:31:49.322Z,7.65
2018-03-18T15:34:15.322Z,6.12
2018-03-18T15:36:41.517Z,5.33
2018-03-18T15:39:07.652Z,4.65
2018-03-18T15:41:33.768Z,4.71
2018-03-18T15:43:59.773Z,4.29
2018-03-18T15:46:25.785Z,4.23
2018-03-18T15:48:51.880Z,4.04
2018-03-18T15:51:17.927Z,3.91
2018-03-18T15:53:43.922Z,3.86
2018-03-18T15:56:09.927Z,3.82
2018-03-18T15:58:35.978Z,3.58
2018-03-18T16:01:02.092Z,3.66
2018-03-18T16:03:28.217Z,3.72
2018-03-18T16:05:54.230Z,3.54
2018-03-18T16:08:20.224Z,3.63
2018-03-18T16:10:46.220Z,3.69
2018-03-18T16:13:12.254Z,3.60
2018-03-18T16:15:38.887Z,3.52
2018-03-18T16:18:05.093Z,3.42
2018-03-18T16:20:31.130Z,3.32
2018-03-18T16:22:57.182Z,3.16
2018-03-18T16:25:23.255Z,3.21
2018-03-18T16:27:49.410Z,2.98
2018-03-18T16:30:27.642Z,2.93
2018-03-18T16:32:54.616Z,2.96
2018-03-18T16:35:20.629Z,2.99
2018-03-18T16:37:46.731Z,3.05
2018-03-18T16:40:12.821Z,2.86
2018-03-18T16:42:38.999Z,2.84
2018-03-18T16:45:05.176Z,2.75
2018-03-18T16:47:31.345Z,2.72
2018-03-18T16:49:57.383Z,2.56
2018-03-18T16:52:23.436Z,2.44
2018-03-18T16:54:49.592Z,2.38
2018-03-18T16:57:15.683Z,2.35
2018-03-18T16:59:41.776Z,2.33
2018-03-18T17:02:07.797Z,2.22
2018-03-18T17:04:33.966Z,2.20
2018-03-18T17:06:59.975Z,2.11
2018-03-18T17:09:26.027Z,2.07
2018-03-18T17:11:52.083Z,1.97
2018-03-18T17:14:18.135Z,1.95
2018-03-18T17:16:44.231Z,1.96
2018-03-18T17:19:10.247Z,1.87
2018-03-18T17:21:36.373Z,1.83
2018-03-18T17:24:02.442Z,1.76
2018-03-18T17:26:28.455Z,1.75
2018-03-18T17:28:54.454Z,1.70
2018-03-18T17:31:20.464Z,1.68
2018-03-18T17:33:46.488Z,1.63
2018-03-18T17:36:12.565Z,1.58
2018-03-18T17:38:38.705Z,1.50
2018-03-18T17:41:04.955Z,1.44
2018-03-18T17:43:30.995Z,1.41
2018-03-18T17:46:09.331Z,1.34
2018-03-18T17:48:47.457Z,1.33
2018-03-18T17:51:25.638Z,1.32
2018-03-18T17:54:03.757Z,1.23
2018-03-18T17:56:35.693Z,1.25
2018-03-18T17:59:01.731Z,1.17
2018-03-18T18:01:27.814Z,1.15
2018-03-18T18:03:53.885Z,1.10
2018-03-18T18:06:20.058Z,1.04
2018-03-18T18:08:46.112Z,1.02
2018-03-18T18:11:12.126Z,0.94
2018-03-18T18:13:38.151Z,0.90
2018-03-18T18:16:04.170Z,0.82
2018-03-18T18:18:30.311Z,0.81
2018-03-18T18:20:56.382Z,0.75
2018-03-18T18:23:22.421Z,0.73
2018-03-18T18:25:49.120Z,0.69
2018-03-18T18:28:16.281Z,0.68
2018-03-18T18:30:42.374Z,0.69
2018-03-18T18:33:08.465Z,0.70
2018-03-18T18:35:34.486Z,0.71
2018-03-18T18:38:00.507Z,0.70
2018-03-18T18:40:26.851Z,0.72
2018-03-18T18:42:53.100Z,0.68
2018-03-18T18:45:20.101Z,0.64
2018-03-18T18:47:46.151Z,0.65
2018-03-18T18:50:12.330Z,0.59
2018-03-18T18:52:38.372Z,0.57
2018-03-18T18:55:04.378Z,0.51
2018-03-18T18:57:31.017Z,0.49
2018-03-18T18:59:57.105Z,0.40
2018-03-18T19:02:23.155Z,0.32
2018-03-18T19:04:49.190Z,0.23
2018-03-18T19:07:15.335Z,0.21
2018-03-18T19:09:41.522Z,0.18
2018-03-18T19:12:07.574Z,0.14
2018-03-18T19:14:33.612Z,0.13
2018-03-18T19:16:59.701Z,0.14
2018-03-18T19:19:25.803Z,0.11
2018-03-18T19:21:51.876Z,0.02
2018-03-18T19:24:17.952Z,0.08
2018-03-18T19:26:43.977Z,0.04
2018-03-18T19:29:10.191Z,0.06
2018-03-18T19:31:36.225Z,0.04
2018-03-18T19:34:02.249Z,0.04
2018-03-18T19:36:28.287Z,-0.05
2018-03-18T19:38:54.291Z,-0.07
2018-03-18T19:41:20.421Z,-0.09
2018-03-18T19:43:46.488Z,-0.08
2018-03-18T19:46:12.555Z,-0.15
2018-03-18T19:48:38.579Z,-0.14
2018-03-18T19:51:04.644Z,-0.09
2018-03-18T19:53:30.865Z,-0.08
2018-03-18T19:55:57.096Z,-0.11
2018-03-18T19:58:23.278Z,-0.07
2018-03-18T20:00:49.303Z,-0.06
2018-03-18T20:03:19.406Z,-0.10
2018-03-18T20:05:46.405Z,-0.16
2018-03-18T20:08:12.441Z,-0.13
2018-03-18T20:10:38.453Z,-0.15
2018-03-18T20:13:04.473Z,-0.20
2018-03-18T20:15:30.666Z,-0.17
2018-03-18T20:17:57.478Z,-0.22
2018-03-18T20:20:23.601Z,-0.18
2018-03-18T20:22:49.715Z,-0.19
2018-03-18T20:25:15.938Z,-0.20
2018-03-18T20:27:42.040Z,-0.31
2018-03-18T20:30:08.143Z,-0.30
2018-03-18T20:32:34.308Z,-0.40
2018-03-18T20:35:00.437Z,-0.36
2018-03-18T20:37:26.505Z,-0.37
2018-03-18T20:39:52.606Z,-0.28
2018-03-18T20:42:18.698Z,-0.27
2018-03-18T20:44:44.711Z,-0.28
2018-03-18T20:47:10.899Z,-0.30
2018-03-18T20:49:37.236Z,-0.35
2018-03-18T20:52:03.313Z,-0.30
2018-03-18T20:54:30.308Z,-0.40
2018-03-18T20:56:56.540Z,-0.41
2018-03-18T20:59:22.634Z,-0.38
2018-03-18T21:01:48.664Z,-0.43
2018-03-18T21:04:14.736Z,-0.44
2018-03-18T21:06:40.800Z,-0.46
2018-03-18T21:09:06.921Z,-0.43
2018-03-18T21:11:33.096Z,-0.43
2018-03-18T21:13:59.150Z,-0.48
2018-03-18T21:16:25.201Z,-0.49
2018-03-18T21:18:51.211Z,-0.49
2018-03-18T21:21:17.387Z,-0.49
2018-03-18T21:23:43.593Z,-0.52
2018-03-18T21:26:09.715Z,-0.55
2018-03-18T21:28:35.800Z,-0.53
2018-03-18T21:31:01.884Z,-0.58
2018-03-18T21:33:27.981Z,-0.63
2018-03-18T21:35:54.067Z,-0.57
2018-03-18T21:38:20.140Z,-0.50
2018-03-18T21:40:46.160Z,-0.56
2018-03-18T21:43:12.171Z,-0.54
2018-03-18T21:45:38.199Z,-0.54
2018-03-18T21:48:04.227Z,-0.53
2018-03-18T21:50:30.263Z,-0.60
2018-03-18T21:52:56.317Z,-0.58
2018-03-18T21:55:22.407Z,-0.64
2018-03-18T21:57:48.495Z,-0.68
2018-03-18T22:00:14.555Z,-0.65
2018-03-18T22:02:40.554Z,-0.65
2018-03-18T22:05:06.694Z,-0.67
2018-03-18T22:07:32.767Z,-0.63
2018-03-18T22:09:58.784Z,-0.67
2018-03-18T22:12:24.840Z,-0.64
2018-03-18T22:14:50.905Z,-0.67
2018-03-18T22:17:16.927Z,-0.72
2018-03-18T22:19:43.007Z,-0.77
2018-03-18T22:22:09.769Z,-0.73
2018-03-18T22:24:35.812Z,-0.74
2018-03-18T22:27:01.915Z,-0.67
2018-03-18T22:29:27.934Z,-0.68
2018-03-18T22:31:53.948Z,-0.68
2018-03-18T22:34:19.976Z,-0.70
2018-03-18T22:36:46.012Z,-0.70
2018-03-18T22:39:12.016Z,-0.68
2018-03-18T22:41:38.049Z,-0.74
2018-03-18T22:44:04.111Z,-0.78
2018-03-18T22:46:30.099Z,-0.76
2018-03-18T22:48:56.101Z,-0.80
2018-03-18T22:51:22.129Z,-0.88
2018-03-18T22:53:48.144Z,-0.83
2018-03-18T22:56:14.178Z,-0.84
2018-03-18T22:58:40.211Z,-0.90
2018-03-18T23:01:06.248Z,-0.91
2018-03-18T23:03:32.280Z,-0.88
2018-03-18T23:05:58.303Z,-0.92
2018-03-18T23:08:24.292Z,-0.89
2018-03-18T23:10:50.357Z,-0.91
2018-03-18T23:13:16.368Z,-0.89
2018-03-18T23:15:42.378Z,-0.91
2018-03-18T23:18:08.382Z,-0.90
2018-03-18T23:20:34.381Z,-0.89
2018-03-18T23:23:00.505Z,-0.95
2018-03-18T23:25:26.515Z,-0.95
2018-03-18T23:27:53.312Z,-0.94
2018-03-18T23:30:19.429Z,-0.89
2018-03-18T23:32:45.497Z,-0.90
2018-03-18T23:35:11.497Z,-0.98
2018-03-18T23:37:37.589Z,-1.04
2018-03-18T23:40:03.640Z,-1.07
2018-03-18T23:42:29.664Z,-1.09
2018-03-18T23:44:55.718Z,-1.08
2018-03-18T23:47:21.808Z,-1.02
2018-03-18T23:49:48.198Z,-1.08
2018-03-18T23:52:14.267Z,-1.19
2018-03-18T23:54:40.282Z,-1.12
2018-03-18T23:57:06.342Z,-1.08
2018-03-18T23:59:32.433Z,-1.11
